createdAt,value
2022-12-20T00:00:52.084Z,-3.29
2022-12-20T00:03:18.984Z,-3.27
2022-12-20T00:05:45.550Z,-3.28
2022-12-20T00:08:12.332Z,-3.26
2022-12-20T00:10:42.492Z,-3.26
2022-12-20T00:13:09.611Z,-3.29
2022-12-20T00:15:36.200Z,-3.27
2022-12-20T00:18:03.323Z,-3.25
2022-12-20T00:20:30.185Z,-3.27
2022-12-20T00:22:56.702Z,-3.29
2022-12-20T00:25:23.251Z,-3.29
2022-12-20T00:27:49.805Z,-3.29
2022-12-20T00:30:16.812Z,-3.33
2022-12-20T00:32:44.014Z,-3.33
2022-12-20T00:35:10.905Z,-3.33
2022-12-20T00:37:37.656Z,-3.32
2022-12-20T00:40:04.778Z,-3.34
2022-12-20T00:42:31.294Z,-3.34
2022-12-20T00:44:57.780Z,-3.33
2022-12-20T00:47:24.302Z,-3.32
2022-12-20T00:49:50.830Z,-3.33
2022-12-20T00:52:17.602Z,-3.32
2022-12-20T00:54:44.160Z,-3.33
2022-12-20T00:57:10.627Z,-3.33
2022-12-20T00:59:37.190Z,-3.31
2022-12-20T01:02:03.859Z,-3.32
2022-12-20T01:04:30.688Z,-3.32
2022-12-20T01:06:57.240Z,-3.29
2022-12-20T01:09:23.742Z,-3.28
2022-12-20T01:11:50.215Z,-3.29
2022-12-20T01:14:17.116Z,-3.32
2022-12-20T01:16:45.065Z,-3.32
2022-12-20T01:19:13.113Z,-3.32
2022-12-20T01:21:44.872Z,-3.31
2022-12-20T01:24:12.546Z,-3.31
2022-12-20T01:26:39.072Z,-3.25
2022-12-20T01:29:05.905Z,-3.29
2022-12-20T01:31:32.568Z,-3.35
2022-12-20T01:33:59.786Z,-3.37
2022-12-20T01:36:27.855Z,-3.38
2022-12-20T01:39:05.011Z,-3.37
2022-12-20T01:41:36.637Z,-3.38
2022-12-20T01:44:05.004Z,-3.35
2022-12-20T01:46:36.391Z,-3.43
2022-12-20T01:49:13.506Z,-3.49
2022-12-20T01:52:00.197Z,-3.50
2022-12-20T01:54:30.659Z,-3.52
2022-12-20T01:56:59.508Z,-3.52
2022-12-20T01:59:27.299Z,-3.49
2022-12-20T02:01:56.336Z,-3.51
2022-12-20T02:04:22.985Z,-3.57
2022-12-20T02:06:49.480Z,-3.58
2022-12-20T02:09:16.326Z,-3.58
2022-12-20T02:11:54.839Z,-3.54
2022-12-20T02:14:30.357Z,-3.53
2022-12-20T02:17:09.112Z,-3.52
2022-12-20T02:20:04.434Z,-3.58
2022-12-20T02:22:30.963Z,-3.49
2022-12-20T02:25:20.813Z,-3.56
2022-12-20T02:28:07.692Z,-3.58
2022-12-20T02:30:35.978Z,-3.58
2022-12-20T02:33:03.999Z,-3.60
2022-12-20T02:35:32.096Z,-3.61
2022-12-20T02:38:00.210Z,-3.62
2022-12-20T02:40:31.968Z,-3.61
2022-12-20T02:43:00.726Z,-3.60
2022-12-20T02:45:29.907Z,-3.58
2022-12-20T02:48:00.443Z,-3.55
2022-12-20T02:50:28.595Z,-3.57
2022-12-20T02:52:55.472Z,-3.58
2022-12-20T02:55:26.207Z,-3.62
2022-12-20T02:58:00.377Z,-3.61
2022-12-20T03:00:31.020Z,-3.62
2022-12-20T03:03:16.096Z,-3.61
2022-12-20T03:05:47.224Z,-3.61
2022-12-20T03:08:13.822Z,-3.66
2022-12-20T03:10:40.320Z,-3.67
2022-12-20T03:13:07.147Z,-3.67
2022-12-20T03:15:33.802Z,-3.63
2022-12-20T03:18:00.353Z,-3.65
2022-12-20T03:20:26.832Z,-3.65
2022-12-20T03:22:53.381Z,-3.62
2022-12-20T03:25:20.041Z,-3.59
2022-12-20T03:27:46.596Z,-3.60
2022-12-20T03:30:13.788Z,-3.66
2022-12-20T03:32:40.312Z,-3.70
2022-12-20T03:35:07.124Z,-3.74
2022-12-20T03:37:33.656Z,-3.78
2022-12-20T03:40:00.220Z,-3.79
2022-12-20T03:42:27.422Z,-3.79
2022-12-20T03:44:53.997Z,-3.77
2022-12-20T03:47:20.645Z,-3.74
2022-12-20T03:49:47.218Z,-3.74
2022-12-20T03:52:14.487Z,-3.79
2022-12-20T03:54:41.083Z,-3.84
2022-12-20T03:57:07.571Z,-3.82
2022-12-20T03:59:34.084Z,-3.81
2022-12-20T04:02:00.805Z,-3.79
2022-12-20T04:04:27.581Z,-3.79
2022-12-20T04:06:54.105Z,-3.83
2022-12-20T04:09:20.625Z,-3.84
2022-12-20T04:11:47.087Z,-3.81
2022-12-20T04:14:13.626Z,-3.82
2022-12-20T04:16:40.235Z,-3.84
2022-12-20T04:19:06.786Z,-3.87
2022-12-20T04:21:34.257Z,-3.90
2022-12-20T04:24:01.747Z,-3.87
2022-12-20T04:26:28.345Z,-3.85
2022-12-20T04:28:55.093Z,-3.84
2022-12-20T04:31:24.110Z,-3.84
2022-12-20T04:33:51.183Z,-3.89
2022-12-20T04:36:18.058Z,-3.95
2022-12-20T04:38:44.609Z,-3.95
2022-12-20T04:41:22.369Z,-3.94
2022-12-20T04:43:50.214Z,-3.96
2022-12-20T04:46:16.760Z,-3.95
2022-12-20T04:48:59.828Z,-3.97
2022-12-20T04:51:27.006Z,-3.98
2022-12-20T04:53:54.092Z,-3.99
2022-12-20T04:56:25.557Z,-4.01
2022-12-20T04:58:52.955Z,-4.04
2022-12-20T05:01:19.945Z,-4.09
2022-12-20T05:03:47.270Z,-4.11
2022-12-20T05:06:14.124Z,-4.12
2022-12-20T05:08:40.663Z,-4.13
2022-12-20T05:11:07.368Z,-4.14
2022-12-20T05:13:34.140Z,-4.17
2022-12-20T05:16:00.685Z,-4.17
2022-12-20T05:18:27.303Z,-4.14
2022-12-20T05:21:16.281Z,-4.14
2022-12-20T05:24:01.508Z,-4.13
2022-12-20T05:26:30.785Z,-4.11
2022-12-20T05:28:57.533Z,-4.09
2022-12-20T05:31:24.154Z,-4.08
2022-12-20T05:33:50.761Z,-4.07
2022-12-20T05:36:17.493Z,-4.07
2022-12-20T05:38:44.120Z,-4.05
2022-12-20T05:41:10.675Z,-4.09
2022-12-20T05:43:37.174Z,-4.13
2022-12-20T05:46:03.697Z,-4.16
2022-12-20T05:48:30.280Z,-4.14
2022-12-20T05:50:56.849Z,-4.11
2022-12-20T05:53:23.511Z,-4.12
2022-12-20T05:55:51.583Z,-4.12
2022-12-20T05:58:18.129Z,-4.17
2022-12-20T06:00:44.975Z,-4.25
2022-12-20T06:03:12.096Z,-4.35
2022-12-20T06:05:39.567Z,-4.37
2022-12-20T06:08:06.608Z,-4.40
2022-12-20T06:10:34.811Z,-4.43
2022-12-20T06:13:02.290Z,-4.44
2022-12-20T06:15:29.084Z,-4.43
2022-12-20T06:17:55.659Z,-4.43
2022-12-20T06:20:22.157Z,-4.41
2022-12-20T06:22:49.003Z,-4.39
2022-12-20T06:25:15.848Z,-4.41
2022-12-20T06:27:42.842Z,-4.43
2022-12-20T06:30:10.089Z,-4.43
2022-12-20T06:32:36.848Z,-4.47
2022-12-20T06:35:03.392Z,-4.50
2022-12-20T06:37:30.115Z,-4.48
2022-12-20T06:39:56.579Z,-4.49
2022-12-20T06:42:23.158Z,-4.48
2022-12-20T06:44:49.748Z,-4.46
2022-12-20T06:47:16.291Z,-4.42
2022-12-20T06:49:42.800Z,-4.40
2022-12-20T06:52:09.356Z,-4.40
2022-12-20T06:54:35.877Z,-4.48
2022-12-20T06:57:02.375Z,-4.53
2022-12-20T06:59:28.898Z,-4.50
2022-12-20T07:01:55.503Z,-4.49
2022-12-20T07:04:22.152Z,-4.49
2022-12-20T07:06:48.653Z,-4.47
2022-12-20T07:09:15.274Z,-4.43
2022-12-20T07:11:43.363Z,-4.42
2022-12-20T07:14:10.115Z,-4.42
2022-12-20T07:16:36.948Z,-4.44
2022-12-20T07:19:03.655Z,-4.45
2022-12-20T07:21:30.163Z,-4.47
2022-12-20T07:23:56.641Z,-4.47
2022-12-20T07:26:23.187Z,-4.48
2022-12-20T07:28:49.746Z,-4.53
2022-12-20T07:31:16.238Z,-4.51
2022-12-20T07:33:42.764Z,-4.50
2022-12-20T07:36:12.401Z,-4.48
2022-12-20T07:38:39.469Z,-4.43
2022-12-20T07:41:10.183Z,-4.38
2022-12-20T07:43:37.221Z,-4.31
2022-12-20T07:46:04.687Z,-4.21
2022-12-20T07:48:31.311Z,-4.18
2022-12-20T07:51:01.963Z,-4.13
2022-12-20T07:53:29.128Z,-4.13
2022-12-20T07:55:56.511Z,-4.14
2022-12-20T07:58:23.190Z,-4.18
2022-12-20T08:00:49.939Z,-4.26
2022-12-20T08:03:22.621Z,-4.24
2022-12-20T08:05:51.774Z,-4.20
2022-12-20T08:08:18.616Z,-4.17
2022-12-20T08:10:45.500Z,-4.11
2022-12-20T08:13:12.669Z,-4.08
2022-12-20T08:15:39.324Z,-4.03
2022-12-20T08:18:06.414Z,-4.00
2022-12-20T08:20:33.121Z,-3.96
2022-12-20T08:22:59.635Z,-3.89
2022-12-20T08:25:26.152Z,-3.84
2022-12-20T08:27:53.238Z,-3.83
2022-12-20T08:30:19.758Z,-3.81
2022-12-20T08:32:46.277Z,-3.80
2022-12-20T08:35:13.232Z,-3.77
2022-12-20T08:37:39.804Z,-3.69
2022-12-20T08:40:07.730Z,-3.56
2022-12-20T08:42:34.709Z,-3.47
2022-12-20T08:45:01.241Z,-3.39
2022-12-20T08:47:29.275Z,-3.56
2022-12-20T08:49:55.792Z,-3.39
2022-12-20T08:52:22.353Z,-3.39
2022-12-20T08:54:48.852Z,-3.36
2022-12-20T08:57:15.483Z,-3.33
2022-12-20T08:59:41.983Z,-3.27
2022-12-20T09:02:08.747Z,-3.16
2022-12-20T09:04:35.372Z,-3.23
2022-12-20T09:07:01.977Z,-3.18
2022-12-20T09:09:28.517Z,-3.14
2022-12-20T09:11:55.682Z,-3.15
2022-12-20T09:14:22.159Z,-3.10
2022-12-20T09:16:49.317Z,-3.16
2022-12-20T09:19:16.037Z,-3.15
2022-12-20T09:21:42.577Z,-3.07
2022-12-20T09:24:09.539Z,-3.17
2022-12-20T09:26:36.178Z,-3.10
2022-12-20T09:29:02.758Z,-3.16
2022-12-20T09:31:29.301Z,-3.15
2022-12-20T09:33:56.695Z,-3.12
2022-12-20T09:36:24.106Z,-3.17
2022-12-20T09:38:51.074Z,-3.02
2022-12-20T09:41:25.111Z,-2.99
2022-12-20T09:43:52.061Z,-3.04
2022-12-20T09:46:18.850Z,-2.97
2022-12-20T09:48:46.379Z,-2.95
2022-12-20T09:51:18.871Z,-2.96
2022-12-20T09:53:45.323Z,-2.96
2022-12-20T09:56:11.830Z,-2.93
2022-12-20T09:58:41.052Z,-2.90
2022-12-20T10:01:24.390Z,-2.84
2022-12-20T10:03:51.939Z,-2.85
2022-12-20T10:06:33.606Z,-2.81
2022-12-20T10:09:02.119Z,-2.92
2022-12-20T10:11:55.151Z,-2.94
2022-12-20T10:14:24.665Z,-2.81
2022-12-20T10:16:54.548Z,-2.67
2022-12-20T10:19:23.879Z,-2.63
2022-12-20T10:21:56.534Z,-2.55
2022-12-20T10:24:30.486Z,-2.58
2022-12-20T10:26:58.382Z,-2.69
2022-12-20T10:29:24.848Z,-2.69
2022-12-20T10:31:59.108Z,-2.75
2022-12-20T10:34:27.093Z,-2.66
2022-12-20T10:37:13.090Z,-2.61
2022-12-20T10:39:44.583Z,-2.56
2022-12-20T10:42:25.483Z,-2.54
2022-12-20T10:44:52.488Z,-2.55
2022-12-20T10:47:30.978Z,-2.52
2022-12-20T10:50:08.409Z,-2.43
2022-12-20T10:52:34.859Z,-2.51
2022-12-20T10:55:01.384Z,-2.49
2022-12-20T10:57:29.415Z,-2.40
2022-12-20T10:59:57.610Z,-2.44
2022-12-20T11:02:29.295Z,-2.56
2022-12-20T11:05:19.091Z,-2.73
2022-12-20T11:10:44.457Z,-2.78
2022-12-20T11:13:23.729Z,-2.51
2022-12-20T11:15:51.435Z,-2.50
2022-12-20T11:18:37.436Z,-2.46
2022-12-20T11:21:12.649Z,-2.37
2022-12-20T11:24:05.988Z,-2.12
2022-12-20T11:26:32.477Z,-2.31
2022-12-20T11:28:58.968Z,-2.35
2022-12-20T11:31:25.546Z,-2.38
2022-12-20T11:34:10.841Z,-2.36
2022-12-20T11:36:56.022Z,-2.31
2022-12-20T11:39:25.861Z,-2.46
2022-12-20T11:41:55.649Z,-2.40
2022-12-20T11:44:25.918Z,-2.40
2022-12-20T11:47:22.794Z,-2.43
2022-12-20T11:49:53.432Z,-2.39
2022-12-20T11:52:19.915Z,-2.44
2022-12-20T11:54:48.874Z,-2.41
2022-12-20T11:57:15.338Z,-2.35
2022-12-20T11:59:42.850Z,-2.34
2022-12-20T12:02:15.574Z,-2.32
2022-12-20T12:04:50.997Z,-2.40
2022-12-20T12:07:20.213Z,-2.39
2022-12-20T12:09:59.172Z,-2.41
2022-12-20T12:12:28.687Z,-2.45
2022-12-20T12:14:59.490Z,-2.43
2022-12-20T12:17:26.004Z,-2.63
2022-12-20T12:19:54.926Z,-2.60
2022-12-20T12:22:27.125Z,-2.59
2022-12-20T12:24:57.300Z,-2.53
2022-12-20T12:27:25.336Z,-2.46
2022-12-20T12:29:54.440Z,-2.49
2022-12-20T12:32:21.880Z,-2.57
2022-12-20T12:35:00.358Z,-2.66
2022-12-20T12:37:26.837Z,-2.61
2022-12-20T12:40:11.873Z,-2.65
2022-12-20T12:42:41.666Z,-2.65
2022-12-20T12:45:15.769Z,-2.65
2022-12-20T12:47:49.266Z,-2.60
2022-12-20T12:50:23.138Z,-2.61
2022-12-20T12:52:54.558Z,-2.65
2022-12-20T12:56:07.273Z,-2.71
2022-12-20T12:58:46.575Z,-2.73
2022-12-20T13:01:35.553Z,-2.76
2022-12-20T13:04:02.106Z,-2.76
2022-12-20T13:06:28.648Z,-2.74
2022-12-20T13:09:04.100Z,-2.82
2022-12-20T13:11:46.567Z,-2.76
2022-12-20T13:14:25.684Z,-2.90
2022-12-20T13:19:48.524Z,-2.85
2022-12-20T13:22:18.193Z,-2.92
2022-12-20T13:24:47.186Z,-2.85
2022-12-20T13:27:32.493Z,-2.84
2022-12-20T13:30:02.744Z,-2.89
2022-12-20T13:32:47.809Z,-2.91
2022-12-20T13:35:29.545Z,-2.89
2022-12-20T13:38:25.219Z,-2.90
2022-12-20T13:40:57.251Z,-2.81
2022-12-20T13:43:26.129Z,-2.92
2022-12-20T13:46:04.787Z,-2.92
2022-12-20T13:48:46.452Z,-2.93
2022-12-20T13:51:17.416Z,-2.93
2022-12-20T13:54:03.528Z,-2.97
2022-12-20T13:56:35.352Z,-2.94
2022-12-20T13:59:07.484Z,-2.95
2022-12-20T14:01:35.238Z,-2.98
2022-12-20T14:04:04.978Z,-2.98
2022-12-20T14:06:31.554Z,-3.00
2022-12-20T14:08:58.053Z,-3.03
2022-12-20T14:11:29.144Z,-3.00
2022-12-20T14:13:57.169Z,-3.01
2022-12-20T14:16:25.869Z,-3.03
2022-12-20T14:18:58.337Z,-3.03
2022-12-20T14:21:25.752Z,-2.85
2022-12-20T14:23:54.333Z,-3.00
2022-12-20T14:26:25.331Z,-3.01
2022-12-20T14:28:53.210Z,-3.06
2022-12-20T14:31:32.067Z,-3.07
2022-12-20T14:34:14.277Z,-3.05
2022-12-20T14:36:46.442Z,-3.04
2022-12-20T14:39:29.908Z,-3.10
2022-12-20T14:42:16.654Z,-3.05
2022-12-20T14:44:43.169Z,-2.99
2022-12-20T14:47:12.456Z,-2.93
2022-12-20T14:49:40.047Z,-2.97
2022-12-20T14:52:12.418Z,-2.92
2022-12-20T14:55:08.987Z,-2.96
2022-12-20T14:57:36.288Z,-3.03
2022-12-20T15:00:14.860Z,-2.99
2022-12-20T15:02:42.693Z,-3.00
2022-12-20T15:05:29.275Z,-3.12
2022-12-20T15:07:55.804Z,-3.07
2022-12-20T15:10:23.665Z,-2.92
2022-12-20T15:12:50.684Z,-2.94
2022-12-20T15:15:29.266Z,-2.95
2022-12-20T15:17:56.324Z,-2.92
2022-12-20T15:20:22.823Z,-2.84
2022-12-20T15:22:49.413Z,-2.84
2022-12-20T15:25:16.900Z,-2.72
2022-12-20T15:27:44.021Z,-2.88
2022-12-20T15:30:16.176Z,-2.94
2022-12-20T15:32:54.730Z,-3.00
2022-12-20T15:35:22.355Z,-2.99
2022-12-20T15:37:48.863Z,-3.03
2022-12-20T15:40:15.485Z,-2.97
2022-12-20T15:42:43.235Z,-3.00
2022-12-20T15:45:14.288Z,-2.99
2022-12-20T15:47:40.853Z,-2.99
2022-12-20T15:50:07.694Z,-3.04
2022-12-20T15:52:34.359Z,-3.06
2022-12-20T15:55:00.868Z,-3.02
2022-12-20T15:57:28.839Z,-3.12
2022-12-20T16:00:01.519Z,-3.11
2022-12-20T16:02:29.935Z,-3.19
2022-12-20T16:04:56.718Z,-3.04
2022-12-20T16:07:23.649Z,-3.03
2022-12-20T16:09:50.439Z,-3.00
2022-12-20T16:12:20.772Z,-3.02
2022-12-20T16:14:47.591Z,-3.04
2022-12-20T16:17:14.392Z,-2.99
2022-12-20T16:19:41.258Z,-3.05
2022-12-20T16:22:14.350Z,-3.02
2022-12-20T16:24:40.866Z,-3.04
2022-12-20T16:27:07.898Z,-3.09
2022-12-20T16:29:34.385Z,-3.07
2022-12-20T16:32:00.979Z,-3.05
2022-12-20T16:34:27.549Z,-3.06
2022-12-20T16:36:54.126Z,-3.08
2022-12-20T16:39:21.538Z,-3.09
2022-12-20T16:41:48.062Z,-3.13
2022-12-20T16:44:15.611Z,-3.08
2022-12-20T16:46:42.391Z,-3.03
2022-12-20T16:49:14.835Z,-3.09
2022-12-20T16:51:47.656Z,-3.08
2022-12-20T16:54:20.449Z,-3.11
2022-12-20T16:56:47.630Z,-3.11
2022-12-20T16:59:20.568Z,-3.10
2022-12-20T17:01:49.109Z,-3.14
2022-12-20T17:04:17.589Z,-3.14
2022-12-20T17:06:44.630Z,-3.14
2022-12-20T17:11:55.028Z,-3.05
2022-12-20T17:14:21.556Z,-3.05
2022-12-20T17:16:48.230Z,-3.05
2022-12-20T17:19:14.908Z,-3.03
2022-12-20T17:24:28.421Z,-3.09
2022-12-20T17:26:55.415Z,-3.16
2022-12-20T17:29:21.925Z,-3.19
2022-12-20T17:31:48.878Z,-3.06
2022-12-20T17:34:18.904Z,-3.16
2022-12-20T17:36:46.000Z,-3.12
2022-12-20T17:39:12.907Z,-3.12
2022-12-20T17:41:39.837Z,-3.15
2022-12-20T17:44:06.764Z,-3.23
2022-12-20T17:46:33.346Z,-3.23
2022-12-20T17:48:59.839Z,-3.20
2022-12-20T17:51:27.561Z,-3.20
2022-12-20T17:53:55.135Z,-3.17
2022-12-20T17:56:29.207Z,-3.15
2022-12-20T17:58:56.103Z,-3.09
2022-12-20T18:01:33.596Z,-3.14
2022-12-20T18:04:04.662Z,-3.18
2022-12-20T18:06:32.545Z,-3.20
2022-12-20T18:09:00.028Z,-3.14
2022-12-20T18:11:27.629Z,-3.14
2022-12-20T18:13:55.307Z,-3.17
2022-12-20T18:16:23.768Z,-3.17
2022-12-20T18:18:50.291Z,-3.18
2022-12-20T18:21:17.705Z,-3.21
2022-12-20T18:23:45.048Z,-3.25
2022-12-20T18:26:13.177Z,-3.23
2022-12-20T18:28:40.344Z,-3.24
2022-12-20T18:31:08.191Z,-3.20
2022-12-20T18:33:35.324Z,-3.17
2022-12-20T18:36:07.916Z,-3.18
2022-12-20T18:38:35.381Z,-3.22
2022-12-20T18:41:02.735Z,-3.24
2022-12-20T18:43:30.820Z,-3.24
2022-12-20T18:46:03.041Z,-3.28
2022-12-20T18:48:29.546Z,-3.26
2022-12-20T18:50:56.097Z,-3.20
2022-12-20T18:53:22.624Z,-3.19
2022-12-20T18:55:49.122Z,-3.17
2022-12-20T18:58:15.587Z,-3.16
2022-12-20T19:00:42.101Z,-3.17
2022-12-20T19:03:08.772Z,-3.17
2022-12-20T19:05:35.492Z,-3.13
2022-12-20T19:08:02.008Z,-3.07
2022-12-20T19:10:31.726Z,-3.09
2022-12-20T19:13:05.274Z,-3.05
2022-12-20T19:15:32.414Z,-3.06
2022-12-20T19:17:58.906Z,-3.11
2022-12-20T19:20:25.425Z,-3.11
2022-12-20T19:22:54.760Z,-3.08
2022-12-20T19:25:21.421Z,-3.07
2022-12-20T19:27:48.088Z,-3.02
2022-12-20T19:30:14.668Z,-3.03
2022-12-20T19:32:41.208Z,-3.04
2022-12-20T19:35:45.261Z,-3.03
2022-12-20T19:37:54.396Z,-3.01
2022-12-20T19:40:20.894Z,-3.07
2022-12-20T19:42:47.589Z,-3.06
2022-12-20T19:45:14.162Z,-3.01
2022-12-20T19:47:40.710Z,-3.00
2022-12-20T19:50:08.718Z,-3.00
2022-12-20T19:52:35.191Z,-3.01
2022-12-20T19:55:01.709Z,-3.00
2022-12-20T19:57:28.194Z,-2.97
2022-12-20T19:59:56.290Z,-2.97
2022-12-20T20:02:23.220Z,-2.95
2022-12-20T20:04:49.825Z,-2.95
2022-12-20T20:07:16.376Z,-3.00
2022-12-20T20:09:42.934Z,-3.00
2022-12-20T20:12:09.465Z,-3.02
2022-12-20T20:14:35.980Z,-3.03
2022-12-20T20:17:02.589Z,-3.02
2022-12-20T20:19:29.177Z,-3.05
2022-12-20T20:21:55.783Z,-3.03
2022-12-20T20:24:22.316Z,-3.06
2022-12-20T20:26:48.954Z,-3.04
2022-12-20T20:29:15.486Z,-3.08
2022-12-20T20:31:42.341Z,-3.06
2022-12-20T20:34:09.908Z,-3.09
2022-12-20T20:36:36.535Z,-3.10
2022-12-20T20:39:03.025Z,-3.03
2022-12-20T20:41:30.445Z,-3.12
2022-12-20T20:43:56.937Z,-3.15
2022-12-20T20:46:23.521Z,-3.17
2022-12-20T20:48:50.182Z,-3.17
2022-12-20T20:51:16.843Z,-3.18
2022-12-20T20:53:43.341Z,-3.24
2022-12-20T20:56:10.299Z,-3.28
2022-12-20T20:58:37.168Z,-3.29
2022-12-20T21:01:05.020Z,-3.34
2022-12-20T21:03:32.152Z,-3.37
2022-12-20T21:08:45.599Z,-3.35
2022-12-20T21:11:12.499Z,-3.40
2022-12-20T21:13:39.156Z,-3.46
2022-12-20T21:16:24.592Z,-3.49
2022-12-20T21:18:51.904Z,-3.50
2022-12-20T21:21:18.709Z,-3.52
2022-12-20T21:23:48.447Z,-3.55
2022-12-20T21:26:15.976Z,-3.58
2022-12-20T21:28:43.877Z,-3.60
2022-12-20T21:31:12.096Z,-3.63
2022-12-20T21:33:39.107Z,-3.65
2022-12-20T21:36:07.133Z,-3.68
2022-12-20T21:38:33.898Z,-3.72
2022-12-20T21:41:01.595Z,-3.73
2022-12-20T21:43:28.725Z,-3.82
2022-12-20T21:45:56.143Z,-3.89
2022-12-20T21:48:22.683Z,-3.86
2022-12-20T21:51:10.146Z,-3.86
2022-12-20T21:53:41.080Z,-3.90
2022-12-20T21:56:07.657Z,-3.93
2022-12-20T21:58:34.156Z,-3.96
2022-12-20T22:01:02.804Z,-3.96
2022-12-20T22:03:29.452Z,-3.98
2022-12-20T22:05:56.402Z,-4.03
2022-12-20T22:08:23.982Z,-4.00
2022-12-20T22:10:58.077Z,-4.00
2022-12-20T22:13:24.603Z,-4.00
2022-12-20T22:15:51.290Z,-3.98
2022-12-20T22:18:17.878Z,-3.98
2022-12-20T22:20:44.852Z,-3.96
2022-12-20T22:23:11.343Z,-3.93
2022-12-20T22:25:38.145Z,-4.03
2022-12-20T22:28:05.571Z,-4.10
2022-12-20T22:30:32.425Z,-4.08
2022-12-20T22:32:58.928Z,-4.06
2022-12-20T22:35:25.431Z,-4.08
2022-12-20T22:37:52.090Z,-4.10
2022-12-20T22:40:18.968Z,-4.12
2022-12-20T22:42:45.485Z,-4.19
2022-12-20T22:45:12.096Z,-4.24
2022-12-20T22:47:40.052Z,-4.25
2022-12-20T22:50:06.952Z,-4.29
2022-12-20T22:52:33.584Z,-4.33
2022-12-20T22:55:00.153Z,-4.33
2022-12-20T22:57:27.767Z,-4.31
2022-12-20T22:59:58.745Z,-4.34
2022-12-20T23:02:26.022Z,-4.36
2022-12-20T23:04:52.855Z,-4.39
2022-12-20T23:07:20.078Z,-4.37
2022-12-20T23:09:47.141Z,-4.41
2022-12-20T23:12:32.292Z,-4.45
2022-12-20T23:15:17.028Z,-4.48
2022-12-20T23:17:43.607Z,-4.51
2022-12-20T23:20:28.919Z,-4.53
2022-12-20T23:22:56.484Z,-4.52
2022-12-20T23:25:23.174Z,-4.57
2022-12-20T23:27:50.153Z,-4.66
2022-12-20T23:30:47.763Z,-4.67
2022-12-20T23:33:14.364Z,-4.67
2022-12-20T23:35:40.907Z,-4.65
2022-12-20T23:38:07.688Z,-4.65
2022-12-20T23:40:34.230Z,-4.65
2022-12-20T23:43:00.805Z,-4.70
2022-12-20T23:45:27.325Z,-4.70
2022-12-20T23:47:53.806Z,-4.68
2022-12-20T23:50:20.414Z,-4.67
2022-12-20T23:52:46.900Z,-4.64
2022-12-20T23:55:13.389Z,-4.64
2022-12-20T23:57:40.088Z,-4.71
